sensor_id;sensor_type;location;lat;lon;timestamp;temperature;humidity
8684;DHT22;4379;59.744;18.206;2023-08-12T00:01:22;8.70;99.90
8684;DHT22;4379;59.744;18.206;2023-08-12T00:03:53;8.70;99.90
8684;DHT22;4379;59.744;18.206;2023-08-12T00:06:21;8.70;99.90
8684;DHT22;4379;59.744;18.206;2023-08-12T00:08:49;8.60;99.90
8684;DHT22;4379;59.744;18.206;2023-08-12T00:11:16;8.60;99.90
8684;DHT22;4379;59.744;18.206;2023-08-12T00:13:43;8.60;99.90
8684;DHT22;4379;59.744;18.206;2023-08-12T00:16:11;8.60;99.90
8684;DHT22;4379;59.744;18.206;2023-08-12T00:18:38;8.60;99.90
8684;DHT22;4379;59.744;18.206;2023-08-12T00:21:09;8.60;99.90
8684;DHT22;4379;59.744;18.206;2023-08-12T00:23:40;8.60;99.90
8684;DHT22;4379;59.744;18.206;2023-08-12T00:26:08;8.60;99.90
8684;DHT22;4379;59.744;18.206;2023-08-12T00:28:36;8.60;99.90
8684;DHT22;4379;59.744;18.206;2023-08-12T00:31:04;8.60;99.90
8684;DHT22;4379;59.744;18.206;2023-08-12T00:33:31;8.60;99.90
8684;DHT22;4379;59.744;18.206;2023-08-12T00:35:59;8.60;99.90
8684;DHT22;4379;59.744;18.206;2023-08-12T00:38:26;8.60;99.90
8684;DHT22;4379;59.744;18.206;2023-08-12T00:40:54;8.60;99.90
8684;DHT22;4379;59.744;18.206;2023-08-12T00:43:21;8.70;99.90
8684;DHT22;4379;59.744;18.206;2023-08-12T00:45:49;8.60;99.90
8684;DHT22;4379;59.744;18.206;2023-08-12T00:48:18;8.70;99.90
8684;DHT22;4379;59.744;18.206;2023-08-12T00:50:46;8.70;99.90
8684;DHT22;4379;59.744;18.206;2023-08-12T00:53:14;8.70;99.90
8684;DHT22;4379;59.744;18.206;2023-08-12T00:55:43;8.70;99.90
8684;DHT22;4379;59.744;18.206;2023-08-12T00:58:12;8.70;99.90
8684;DHT22;4379;59.744;18.206;2023-08-12T01:00:42;8.70;99.90
8684;DHT22;4379;59.744;18.206;2023-08-12T01:03:09;8.70;99.90
8684;DHT22;4379;59.744;18.206;2023-08-12T01:05:41;8.70;99.90
8684;DHT22;4379;59.744;18.206;2023-08-12T01:08:09;8.70;99.90
8684;DHT22;4379;59.744;18.206;2023-08-12T01:10:45;8.70;99.90
8684;DHT22;4379;59.744;18.206;2023-08-12T01:13:34;8.70;99.90
8684;DHT22;4379;59.744;18.206;2023-08-12T01:16:06;8.60;99.90
8684;DHT22;4379;59.744;18.206;2023-08-12T01:18:35;8.70;99.90
8684;DHT22;4379;59.744;18.206;2023-08-12T01:21:07;8.70;99.90
8684;DHT22;4379;59.744;18.206;2023-08-12T01:23:36;8.60;99.90
8684;DHT22;4379;59.744;18.206;2023-08-12T01:26:03;8.70;99.90
8684;DHT22;4379;59.744;18.206;2023-08-12T01:28:31;8.70;99.90
8684;DHT22;4379;59.744;18.206;2023-08-12T01:31:19;8.70;99.90
8684;DHT22;4379;59.744;18.206;2023-08-12T01:34:22;8.70;99.90
8684;DHT22;4379;59.744;18.206;2023-08-12T01:36:55;8.70;99.90
8684;DHT22;4379;59.744;18.206;2023-08-12T01:39:26;8.70;99.90
8684;DHT22;4379;59.744;18.206;2023-08-12T01:41:55;8.60;99.90
8684;DHT22;4379;59.744;18.206;2023-08-12T01:44:23;8.60;99.90
8684;DHT22;4379;59.744;18.206;2023-08-12T01:46:51;8.60;99.90
8684;DHT22;4379;59.744;18.206;2023-08-12T01:49:18;8.60;99.90
8684;DHT22;4379;59.744;18.206;2023-08-12T01:51:46;8.60;99.90
8684;DHT22;4379;59.744;18.206;2023-08-12T01:54:13;8.60;99.90
8684;DHT22;4379;59.744;18.206;2023-08-12T01:56:40;8.50;99.90
8684;DHT22;4379;59.744;18.206;2023-08-12T01:59:09;8.50;99.90
8684;DHT22;4379;59.744;18.206;2023-08-12T02:01:36;8.60;99.90
8684;DHT22;4379;59.744;18.206;2023-08-12T02:04:03;8.60;99.90
8684;DHT22;4379;59.744;18.206;2023-08-12T02:06:33;8.60;99.90
8684;DHT22;4379;59.744;18.206;2023-08-12T02:09:01;8.60;99.90
8684;DHT22;4379;59.744;18.206;2023-08-12T02:11:29;8.60;99.90
8684;DHT22;4379;59.744;18.206;2023-08-12T02:13:56;8.60;99.90
8684;DHT22;4379;59.744;18.206;2023-08-12T02:16:24;8.60;99.90
8684;DHT22;4379;59.744;18.206;2023-08-12T02:18:51;8.60;99.90
8684;DHT22;4379;59.744;18.206;2023-08-12T02:21:19;8.60;99.90
8684;DHT22;4379;59.744;18.206;2023-08-12T02:23:46;8.60;99.90
8684;DHT22;4379;59.744;18.206;2023-08-12T02:26:13;8.50;99.90
8684;DHT22;4379;59.744;18.206;2023-08-12T02:28:41;8.50;99.90
8684;DHT22;4379;59.744;18.206;2023-08-12T02:31:08;8.60;99.90
8684;DHT22;4379;59.744;18.206;2023-08-12T02:33:36;8.50;99.90
8684;DHT22;4379;59.744;18.206;2023-08-12T02:36:04;8.50;99.90
8684;DHT22;4379;59.744;18.206;2023-08-12T02:38:32;8.60;99.90
8684;DHT22;4379;59.744;18.206;2023-08-12T02:40:59;8.50;99.90
8684;DHT22;4379;59.744;18.206;2023-08-12T02:43:27;8.50;99.90
8684;DHT22;4379;59.744;18.206;2023-08-12T02:45:55;8.50;99.90
8684;DHT22;4379;59.744;18.206;2023-08-12T02:48:22;8.50;99.90
8684;DHT22;4379;59.744;18.206;2023-08-12T02:50:49;8.50;99.90
8684;DHT22;4379;59.744;18.206;2023-08-12T02:53:17;8.50;99.90
8684;DHT22;4379;59.744;18.206;2023-08-12T02:55:45;8.50;99.90
8684;DHT22;4379;59.744;18.206;2023-08-12T02:58:13;8.50;99.90
8684;DHT22;4379;59.744;18.206;2023-08-12T03:00:46;8.50;99.90
8684;DHT22;4379;59.744;18.206;2023-08-12T03:03:14;8.40;99.90
8684;DHT22;4379;59.744;18.206;2023-08-12T03:05:48;8.40;99.90
8684;DHT22;4379;59.744;18.206;2023-08-12T03:08:16;8.50;99.90
8684;DHT22;4379;59.744;18.206;2023-08-12T03:10:44;8.50;99.90
8684;DHT22;4379;59.744;18.206;2023-08-12T03:13:12;8.50;99.90
8684;DHT22;4379;59.744;18.206;2023-08-12T03:15:39;8.50;99.90
8684;DHT22;4379;59.744;18.206;2023-08-12T03:18:10;8.50;99.90
8684;DHT22;4379;59.744;18.206;2023-08-12T03:20:37;8.50;99.90
8684;DHT22;4379;59.744;18.206;2023-08-12T03:23:05;8.60;99.90
8684;DHT22;4379;59.744;18.206;2023-08-12T03:25:33;8.60;99.90
8684;DHT22;4379;59.744;18.206;2023-08-12T03:28:03;8.50;99.90
8684;DHT22;4379;59.744;18.206;2023-08-12T03:30:31;8.50;99.90
8684;DHT22;4379;59.744;18.206;2023-08-12T03:33:01;8.40;99.90
8684;DHT22;4379;59.744;18.206;2023-08-12T03:35:32;8.40;99.90
8684;DHT22;4379;59.744;18.206;2023-08-12T03:38:00;8.50;99.90
8684;DHT22;4379;59.744;18.206;2023-08-12T03:40:30;8.50;99.90
8684;DHT22;4379;59.744;18.206;2023-08-12T03:42:57;8.60;99.90
8684;DHT22;4379;59.744;18.206;2023-08-12T03:45:25;8.70;99.90
8684;DHT22;4379;59.744;18.206;2023-08-12T03:47:52;8.70;99.90
8684;DHT22;4379;59.744;18.206;2023-08-12T03:50:20;8.70;99.90
8684;DHT22;4379;59.744;18.206;2023-08-12T03:52:47;8.80;99.90
8684;DHT22;4379;59.744;18.206;2023-08-12T03:55:15;8.80;99.90
8684;DHT22;4379;59.744;18.206;2023-08-12T03:57:43;8.80;99.90
8684;DHT22;4379;59.744;18.206;2023-08-12T04:00:11;8.90;99.90
8684;DHT22;4379;59.744;18.206;2023-08-12T04:02:38;8.90;99.90
8684;DHT22;4379;59.744;18.206;2023-08-12T04:05:06;9.00;99.90
8684;DHT22;4379;59.744;18.206;2023-08-12T04:07:36;9.00;99.90
8684;DHT22;4379;59.744;18.206;2023-08-12T04:10:04;9.20;99.90
8684;DHT22;4379;59.744;18.206;2023-08-12T04:12:35;9.20;99.90
8684;DHT22;4379;59.744;18.206;2023-08-12T04:15:03;9.30;99.90
8684;DHT22;4379;59.744;18.206;2023-08-12T04:17:33;9.40;99.90
8684;DHT22;4379;59.744;18.206;2023-08-12T04:20:01;9.40;99.90
8684;DHT22;4379;59.744;18.206;2023-08-12T04:22:35;9.40;99.90
8684;DHT22;4379;59.744;18.206;2023-08-12T04:25:18;9.60;99.90
8684;DHT22;4379;59.744;18.206;2023-08-12T04:27:48;9.70;99.90
8684;DHT22;4379;59.744;18.206;2023-08-12T04:30:19;9.80;99.90
8684;DHT22;4379;59.744;18.206;2023-08-12T04:32:47;9.90;99.90
8684;DHT22;4379;59.744;18.206;2023-08-12T04:35:16;10.00;99.90
8684;DHT22;4379;59.744;18.206;2023-08-12T04:37:43;10.20;99.90
8684;DHT22;4379;59.744;18.206;2023-08-12T04:40:11;10.30;99.90
8684;DHT22;4379;59.744;18.206;2023-08-12T04:42:39;10.50;99.90
8684;DHT22;4379;59.744;18.206;2023-08-12T04:45:07;10.80;99.90
8684;DHT22;4379;59.744;18.206;2023-08-12T04:47:35;10.90;99.90
8684;DHT22;4379;59.744;18.206;2023-08-12T04:50:02;11.00;99.90
8684;DHT22;4379;59.744;18.206;2023-08-12T04:52:31;11.10;99.90
8684;DHT22;4379;59.744;18.206;2023-08-12T04:55:03;11.10;99.90
8684;DHT22;4379;59.744;18.206;2023-08-12T04:57:31;11.20;99.90
8684;DHT22;4379;59.744;18.206;2023-08-12T04:59:59;11.40;99.90
8684;DHT22;4379;59.744;18.206;2023-08-12T05:02:26;11.50;99.90
8684;DHT22;4379;59.744;18.206;2023-08-12T05:04:54;11.70;99.90
8684;DHT22;4379;59.744;18.206;2023-08-12T05:07:22;12.00;99.90
8684;DHT22;4379;59.744;18.206;2023-08-12T05:09:49;12.20;99.90
8684;DHT22;4379;59.744;18.206;2023-08-12T05:12:17;12.30;99.90
8684;DHT22;4379;59.744;18.206;2023-08-12T05:14:44;12.60;99.90
8684;DHT22;4379;59.744;18.206;2023-08-12T05:17:12;12.60;99.90
8684;DHT22;4379;59.744;18.206;2023-08-12T05:19:39;12.60;99.90
8684;DHT22;4379;59.744;18.206;2023-08-12T05:22:07;12.60;99.90
8684;DHT22;4379;59.744;18.206;2023-08-12T05:24:34;13.00;99.90
8684;DHT22;4379;59.744;18.206;2023-08-12T05:27:11;13.30;99.90
8684;DHT22;4379;59.744;18.206;2023-08-12T05:29:41;13.70;99.90
8684;DHT22;4379;59.744;18.206;2023-08-12T05:32:10;14.30;99.90
8684;DHT22;4379;59.744;18.206;2023-08-12T05:34:38;16.40;99.90
8684;DHT22;4379;59.744;18.206;2023-08-12T05:37:05;18.80;99.90
8684;DHT22;4379;59.744;18.206;2023-08-12T05:39:33;22.00;99.90
8684;DHT22;4379;59.744;18.206;2023-08-12T05:42:00;25.10;99.90
8684;DHT22;4379;59.744;18.206;2023-08-12T05:44:28;27.90;99.90
8684;DHT22;4379;59.744;18.206;2023-08-12T05:46:55;27.50;99.90
8684;DHT22;4379;59.744;18.206;2023-08-12T05:49:23;26.40;99.90
8684;DHT22;4379;59.744;18.206;2023-08-12T05:51:50;24.70;99.90
8684;DHT22;4379;59.744;18.206;2023-08-12T05:54:20;23.20;99.90
8684;DHT22;4379;59.744;18.206;2023-08-12T05:56:48;21.00;99.90
8684;DHT22;4379;59.744;18.206;2023-08-12T05:59:15;20.70;99.90
8684;DHT22;4379;59.744;18.206;2023-08-12T06:01:43;21.00;99.90
8684;DHT22;4379;59.744;18.206;2023-08-12T06:04:10;20.20;99.90
8684;DHT22;4379;59.744;18.206;2023-08-12T06:06:38;20.20;99.90
8684;DHT22;4379;59.744;18.206;2023-08-12T06:09:05;20.20;99.90
8684;DHT22;4379;59.744;18.206;2023-08-12T06:11:32;19.90;99.90
8684;DHT22;4379;59.744;18.206;2023-08-12T06:14:00;19.40;99.90
8684;DHT22;4379;59.744;18.206;2023-08-12T06:16:27;19.40;99.90
8684;DHT22;4379;59.744;18.206;2023-08-12T06:18:55;19.00;99.90
8684;DHT22;4379;59.744;18.206;2023-08-12T06:21:23;18.60;99.90
8684;DHT22;4379;59.744;18.206;2023-08-12T06:23:50;17.60;99.90
8684;DHT22;4379;59.744;18.206;2023-08-12T06:26:17;17.50;99.90
8684;DHT22;4379;59.744;18.206;2023-08-12T06:28:48;17.50;99.90
8684;DHT22;4379;59.744;18.206;2023-08-12T06:31:15;17.00;99.90
8684;DHT22;4379;59.744;18.206;2023-08-12T06:33:45;17.40;99.90
8684;DHT22;4379;59.744;18.206;2023-08-12T06:36:13;17.50;99.90
8684;DHT22;4379;59.744;18.206;2023-08-12T06:38:40;17.30;99.90
8684;DHT22;4379;59.744;18.206;2023-08-12T06:41:11;17.50;99.90
8684;DHT22;4379;59.744;18.206;2023-08-12T06:43:38;17.70;99.90
8684;DHT22;4379;59.744;18.206;2023-08-12T06:46:06;17.70;99.90
8684;DHT22;4379;59.744;18.206;2023-08-12T06:48:33;17.70;99.90
8684;DHT22;4379;59.744;18.206;2023-08-12T06:51:01;17.50;99.90
8684;DHT22;4379;59.744;18.206;2023-08-12T06:53:34;17.20;99.90
8684;DHT22;4379;59.744;18.206;2023-08-12T06:56:01;16.90;99.90
8684;DHT22;4379;59.744;18.206;2023-08-12T06:58:32;16.90;99.90
8684;DHT22;4379;59.744;18.206;2023-08-12T07:01:02;16.90;99.90
8684;DHT22;4379;59.744;18.206;2023-08-12T07:03:30;16.80;99.90
8684;DHT22;4379;59.744;18.206;2023-08-12T07:05:57;16.70;99.90
8684;DHT22;4379;59.744;18.206;2023-08-12T07:08:25;17.30;99.90
8684;DHT22;4379;59.744;18.206;2023-08-12T07:10:54;17.60;99.90
8684;DHT22;4379;59.744;18.206;2023-08-12T07:13:24;17.70;99.90
8684;DHT22;4379;59.744;18.206;2023-08-12T07:15:55;17.70;99.90
8684;DHT22;4379;59.744;18.206;2023-08-12T07:18:23;17.60;99.90
8684;DHT22;4379;59.744;18.206;2023-08-12T07:20:50;17.60;99.90
8684;DHT22;4379;59.744;18.206;2023-08-12T07:23:18;17.70;99.90
8684;DHT22;4379;59.744;18.206;2023-08-12T07:25:48;18.00;99.90
8684;DHT22;4379;59.744;18.206;2023-08-12T07:28:15;18.20;99.90
8684;DHT22;4379;59.744;18.206;2023-08-12T07:30:43;18.60;99.90
8684;DHT22;4379;59.744;18.206;2023-08-12T07:33:10;18.80;99.90
8684;DHT22;4379;59.744;18.206;2023-08-12T07:35:38;19.10;99.90
8684;DHT22;4379;59.744;18.206;2023-08-12T07:38:05;18.90;99.90
8684;DHT22;4379;59.744;18.206;2023-08-12T07:40:33;18.70;99.90
8684;DHT22;4379;59.744;18.206;2023-08-12T07:43:00;19.50;99.90
8684;DHT22;4379;59.744;18.206;2023-08-12T07:45:28;19.40;99.90
8684;DHT22;4379;59.744;18.206;2023-08-12T07:47:55;20.70;99.90
8684;DHT22;4379;59.744;18.206;2023-08-12T07:50:23;21.70;99.90
8684;DHT22;4379;59.744;18.206;2023-08-12T07:52:50;21.20;99.90
8684;DHT22;4379;59.744;18.206;2023-08-12T07:55:19;20.80;99.90
8684;DHT22;4379;59.744;18.206;2023-08-12T07:57:46;20.10;99.90
8684;DHT22;4379;59.744;18.206;2023-08-12T08:00:14;19.10;99.90
8684;DHT22;4379;59.744;18.206;2023-08-12T08:02:41;18.60;99.90
8684;DHT22;4379;59.744;18.206;2023-08-12T08:05:09;18.40;99.90
8684;DHT22;4379;59.744;18.206;2023-08-12T08:07:37;18.30;99.90
8684;DHT22;4379;59.744;18.206;2023-08-12T08:10:04;18.50;99.90
8684;DHT22;4379;59.744;18.206;2023-08-12T08:12:32;18.70;99.90
8684;DHT22;4379;59.744;18.206;2023-08-12T08:15:01;18.10;99.90
8684;DHT22;4379;59.744;18.206;2023-08-12T08:17:30;17.70;99.90
8684;DHT22;4379;59.744;18.206;2023-08-12T08:19:58;17.70;99.90
8684;DHT22;4379;59.744;18.206;2023-08-12T08:22:25;17.80;99.90
8684;DHT22;4379;59.744;18.206;2023-08-12T08:24:53;17.60;99.90
8684;DHT22;4379;59.744;18.206;2023-08-12T08:27:20;17.50;99.90
8684;DHT22;4379;59.744;18.206;2023-08-12T08:29:47;17.60;99.90
8684;DHT22;4379;59.744;18.206;2023-08-12T08:32:15;18.00;99.90
8684;DHT22;4379;59.744;18.206;2023-08-12T08:34:43;18.20;99.90
8684;DHT22;4379;59.744;18.206;2023-08-12T08:37:10;18.10;99.90
8684;DHT22;4379;59.744;18.206;2023-08-12T08:39:38;17.90;99.90
8684;DHT22;4379;59.744;18.206;2023-08-12T08:42:05;18.00;99.90
8684;DHT22;4379;59.744;18.206;2023-08-12T08:44:33;17.80;99.90
8684;DHT22;4379;59.744;18.206;2023-08-12T08:47:01;17.50;99.90
8684;DHT22;4379;59.744;18.206;2023-08-12T08:49:30;17.60;99.90
8684;DHT22;4379;59.744;18.206;2023-08-12T08:51:59;17.30;99.90
8684;DHT22;4379;59.744;18.206;2023-08-12T08:54:27;17.30;99.90
8684;DHT22;4379;59.744;18.206;2023-08-12T08:56:55;17.70;99.90
8684;DHT22;4379;59.744;18.206;2023-08-12T08:59:31;17.60;99.90
8684;DHT22;4379;59.744;18.206;2023-08-12T09:01:59;17.70;99.90
8684;DHT22;4379;59.744;18.206;2023-08-12T09:04:28;17.60;99.90
8684;DHT22;4379;59.744;18.206;2023-08-12T09:06:57;17.50;99.90
8684;DHT22;4379;59.744;18.206;2023-08-12T09:09:26;17.70;99.90
8684;DHT22;4379;59.744;18.206;2023-08-12T09:11:55;17.70;99.90
8684;DHT22;4379;59.744;18.206;2023-08-12T09:14:23;17.90;99.90
8684;DHT22;4379;59.744;18.206;2023-08-12T09:16:50;18.00;99.90
8684;DHT22;4379;59.744;18.206;2023-08-12T09:19:18;18.00;99.90
8684;DHT22;4379;59.744;18.206;2023-08-12T09:21:52;18.20;99.90
8684;DHT22;4379;59.744;18.206;2023-08-12T09:24:26;18.60;99.90
8684;DHT22;4379;59.744;18.206;2023-08-12T09:26:55;19.30;99.90
8684;DHT22;4379;59.744;18.206;2023-08-12T09:29:23;19.00;99.90
8684;DHT22;4379;59.744;18.206;2023-08-12T09:31:54;19.20;99.90
8684;DHT22;4379;59.744;18.206;2023-08-12T09:34:24;19.50;99.90
8684;DHT22;4379;59.744;18.206;2023-08-12T09:36:51;18.90;99.90
8684;DHT22;4379;59.744;18.206;2023-08-12T09:39:19;18.90;99.90
8684;DHT22;4379;59.744;18.206;2023-08-12T09:41:46;19.00;99.90
8684;DHT22;4379;59.744;18.206;2023-08-12T09:44:14;18.60;99.90
8684;DHT22;4379;59.744;18.206;2023-08-12T09:46:43;18.20;99.90
8684;DHT22;4379;59.744;18.206;2023-08-12T09:49:10;18.00;99.90
8684;DHT22;4379;59.744;18.206;2023-08-12T09:51:38;18.00;99.90
8684;DHT22;4379;59.744;18.206;2023-08-12T09:54:10;18.10;99.90
8684;DHT22;4379;59.744;18.206;2023-08-12T09:56:41;18.00;99.90
8684;DHT22;4379;59.744;18.206;2023-08-12T09:59:11;17.80;99.90
8684;DHT22;4379;59.744;18.206;2023-08-12T10:01:40;18.00;99.90
8684;DHT22;4379;59.744;18.206;2023-08-12T10:04:11;18.00;99.90
8684;DHT22;4379;59.744;18.206;2023-08-12T10:06:42;17.90;99.90
8684;DHT22;4379;59.744;18.206;2023-08-12T10:09:10;17.80;99.90
8684;DHT22;4379;59.744;18.206;2023-08-12T10:11:38;17.80;99.90
8684;DHT22;4379;59.744;18.206;2023-08-12T10:14:09;17.40;99.90
8684;DHT22;4379;59.744;18.206;2023-08-12T10:16:37;17.40;99.90
8684;DHT22;4379;59.744;18.206;2023-08-12T10:19:10;17.60;99.90
8684;DHT22;4379;59.744;18.206;2023-08-12T10:21:40;17.60;99.90
8684;DHT22;4379;59.744;18.206;2023-08-12T10:24:09;17.50;99.90
8684;DHT22;4379;59.744;18.206;2023-08-12T10:26:40;17.40;99.90
8684;DHT22;4379;59.744;18.206;2023-08-12T10:29:09;17.40;99.90
8684;DHT22;4379;59.744;18.206;2023-08-12T10:31:38;17.30;99.90
8684;DHT22;4379;59.744;18.206;2023-08-12T10:34:18;17.30;99.90
8684;DHT22;4379;59.744;18.206;2023-08-12T10:36:57;17.30;99.90
8684;DHT22;4379;59.744;18.206;2023-08-12T10:39:28;17.30;99.90
8684;DHT22;4379;59.744;18.206;2023-08-12T10:41:58;17.20;99.90
8684;DHT22;4379;59.744;18.206;2023-08-12T10:44:29;17.20;99.90
8684;DHT22;4379;59.744;18.206;2023-08-12T10:47:10;17.20;99.90
8684;DHT22;4379;59.744;18.206;2023-08-12T10:49:42;17.20;99.90
8684;DHT22;4379;59.744;18.206;2023-08-12T10:52:29;17.50;99.90
8684;DHT22;4379;59.744;18.206;2023-08-12T10:57:44;17.80;99.90
8684;DHT22;4379;59.744;18.206;2023-08-12T11:00:14;17.70;99.90
8684;DHT22;4379;59.744;18.206;2023-08-12T11:02:48;17.80;99.90
8684;DHT22;4379;59.744;18.206;2023-08-12T11:05:17;17.80;99.90
8684;DHT22;4379;59.744;18.206;2023-08-12T11:07:58;18.00;99.90
8684;DHT22;4379;59.744;18.206;2023-08-12T11:10:31;18.30;99.90
8684;DHT22;4379;59.744;18.206;2023-08-12T11:13:01;18.30;99.90
8684;DHT22;4379;59.744;18.206;2023-08-12T11:15:37;18.30;99.90
8684;DHT22;4379;59.744;18.206;2023-08-12T11:18:13;18.40;99.90
8684;DHT22;4379;59.744;18.206;2023-08-12T11:20:41;18.60;99.90
8684;DHT22;4379;59.744;18.206;2023-08-12T11:23:09;18.40;99.90
8684;DHT22;4379;59.744;18.206;2023-08-12T11:25:39;18.50;99.90
8684;DHT22;4379;59.744;18.206;2023-08-12T11:28:07;18.50;99.90
8684;DHT22;4379;59.744;18.206;2023-08-12T11:30:35;18.40;99.90
8684;DHT22;4379;59.744;18.206;2023-08-12T11:33:06;18.20;99.90
8684;DHT22;4379;59.744;18.206;2023-08-12T11:35:35;18.10;99.90
8684;DHT22;4379;59.744;18.206;2023-08-12T11:38:05;17.90;99.90
8684;DHT22;4379;59.744;18.206;2023-08-12T11:40:34;17.70;99.90
8684;DHT22;4379;59.744;18.206;2023-08-12T11:43:04;17.90;99.90
8684;DHT22;4379;59.744;18.206;2023-08-12T11:45:34;17.90;99.90
8684;DHT22;4379;59.744;18.206;2023-08-12T11:48:02;17.90;99.90
8684;DHT22;4379;59.744;18.206;2023-08-12T11:50:32;18.10;99.90
8684;DHT22;4379;59.744;18.206;2023-08-12T11:53:00;18.20;99.90
8684;DHT22;4379;59.744;18.206;2023-08-12T11:55:31;18.40;99.90
8684;DHT22;4379;59.744;18.206;2023-08-12T11:58:01;18.30;99.90
8684;DHT22;4379;59.744;18.206;2023-08-12T12:00:40;18.40;99.90
8684;DHT22;4379;59.744;18.206;2023-08-12T12:03:08;18.50;99.90
8684;DHT22;4379;59.744;18.206;2023-08-12T12:05:40;18.50;99.90
8684;DHT22;4379;59.744;18.206;2023-08-12T12:08:08;18.40;99.90
8684;DHT22;4379;59.744;18.206;2023-08-12T12:10:39;18.60;99.90
8684;DHT22;4379;59.744;18.206;2023-08-12T12:13:06;18.30;99.90
8684;DHT22;4379;59.744;18.206;2023-08-12T12:15:42;18.40;99.90
8684;DHT22;4379;59.744;18.206;2023-08-12T12:18:13;18.40;99.90
8684;DHT22;4379;59.744;18.206;2023-08-12T12:20:57;18.50;99.90
8684;DHT22;4379;59.744;18.206;2023-08-12T12:23:31;18.70;99.90
8684;DHT22;4379;59.744;18.206;2023-08-12T12:26:00;18.40;99.90
8684;DHT22;4379;59.744;18.206;2023-08-12T12:28:29;18.60;99.90
8684;DHT22;4379;59.744;18.206;2023-08-12T12:30:58;18.50;99.90
8684;DHT22;4379;59.744;18.206;2023-08-12T12:33:26;18.80;99.90
8684;DHT22;4379;59.744;18.206;2023-08-12T12:35:54;18.70;99.90
8684;DHT22;4379;59.744;18.206;2023-08-12T12:38:27;18.80;99.90
8684;DHT22;4379;59.744;18.206;2023-08-12T12:40:54;18.70;99.90
8684;DHT22;4379;59.744;18.206;2023-08-12T12:43:22;18.80;99.90
8684;DHT22;4379;59.744;18.206;2023-08-12T12:45:50;18.90;99.90
8684;DHT22;4379;59.744;18.206;2023-08-12T12:48:18;19.00;99.90
8684;DHT22;4379;59.744;18.206;2023-08-12T12:50:47;19.00;99.90
8684;DHT22;4379;59.744;18.206;2023-08-12T12:53:15;19.10;99.90
8684;DHT22;4379;59.744;18.206;2023-08-12T12:55:43;19.10;99.90
8684;DHT22;4379;59.744;18.206;2023-08-12T12:58:11;19.00;99.90
8684;DHT22;4379;59.744;18.206;2023-08-12T13:00:39;19.20;99.90
8684;DHT22;4379;59.744;18.206;2023-08-12T13:03:07;19.10;99.90
8684;DHT22;4379;59.744;18.206;2023-08-12T13:05:34;19.00;99.90
8684;DHT22;4379;59.744;18.206;2023-08-12T13:08:02;18.80;99.90
8684;DHT22;4379;59.744;18.206;2023-08-12T13:10:30;18.80;99.90
8684;DHT22;4379;59.744;18.206;2023-08-12T13:13:00;19.00;99.90
8684;DHT22;4379;59.744;18.206;2023-08-12T13:15:34;19.00;99.90
8684;DHT22;4379;59.744;18.206;2023-08-12T13:18:02;19.20;99.90
8684;DHT22;4379;59.744;18.206;2023-08-12T13:20:33;19.00;99.90
8684;DHT22;4379;59.744;18.206;2023-08-12T13:23:00;18.90;99.90
8684;DHT22;4379;59.744;18.206;2023-08-12T13:25:32;19.00;99.90
8684;DHT22;4379;59.744;18.206;2023-08-12T13:28:02;18.90;99.90
8684;DHT22;4379;59.744;18.206;2023-08-12T13:30:30;18.80;99.90
8684;DHT22;4379;59.744;18.206;2023-08-12T13:32:58;18.60;99.90
8684;DHT22;4379;59.744;18.206;2023-08-12T13:35:28;18.70;99.90
8684;DHT22;4379;59.744;18.206;2023-08-12T13:37:55;18.80;99.90
8684;DHT22;4379;59.744;18.206;2023-08-12T13:40:22;18.60;99.90
8684;DHT22;4379;59.744;18.206;2023-08-12T13:42:50;18.70;99.90
8684;DHT22;4379;59.744;18.206;2023-08-12T13:45:18;18.80;99.90
8684;DHT22;4379;59.744;18.206;2023-08-12T13:47:47;18.90;99.90
8684;DHT22;4379;59.744;18.206;2023-08-12T13:50:21;19.00;99.90
8684;DHT22;4379;59.744;18.206;2023-08-12T13:52:49;19.00;99.90
8684;DHT22;4379;59.744;18.206;2023-08-12T13:55:20;19.20;99.90
8684;DHT22;4379;59.744;18.206;2023-08-12T13:57:47;19.30;99.90
8684;DHT22;4379;59.744;18.206;2023-08-12T14:00:15;19.30;99.90
8684;DHT22;4379;59.744;18.206;2023-08-12T14:02:43;19.30;99.90
8684;DHT22;4379;59.744;18.206;2023-08-12T14:05:11;19.50;99.90
8684;DHT22;4379;59.744;18.206;2023-08-12T14:07:39;19.50;99.90
8684;DHT22;4379;59.744;18.206;2023-08-12T14:10:07;19.60;99.90
8684;DHT22;4379;59.744;18.206;2023-08-12T14:12:38;19.60;99.90
8684;DHT22;4379;59.744;18.206;2023-08-12T14:15:06;19.80;99.90
8684;DHT22;4379;59.744;18.206;2023-08-12T14:17:34;19.60;99.90
8684;DHT22;4379;59.744;18.206;2023-08-12T14:20:05;19.60;99.90
8684;DHT22;4379;59.744;18.206;2023-08-12T14:22:35;19.80;99.90
8684;DHT22;4379;59.744;18.206;2023-08-12T14:25:03;19.70;99.90
8684;DHT22;4379;59.744;18.206;2023-08-12T14:27:32;19.80;99.90
8684;DHT22;4379;59.744;18.206;2023-08-12T14:30:00;20.00;99.90
8684;DHT22;4379;59.744;18.206;2023-08-12T14:32:27;19.90;99.90
8684;DHT22;4379;59.744;18.206;2023-08-12T14:34:55;19.70;99.90
8684;DHT22;4379;59.744;18.206;2023-08-12T14:37:23;19.70;99.90
8684;DHT22;4379;59.744;18.206;2023-08-12T14:39:51;19.60;99.90
8684;DHT22;4379;59.744;18.206;2023-08-12T14:42:18;19.80;99.90
8684;DHT22;4379;59.744;18.206;2023-08-12T14:44:46;19.90;99.90
8684;DHT22;4379;59.744;18.206;2023-08-12T14:47:13;19.60;99.90
8684;DHT22;4379;59.744;18.206;2023-08-12T14:49:41;19.60;99.90
8684;DHT22;4379;59.744;18.206;2023-08-12T14:52:16;19.80;99.90
8684;DHT22;4379;59.744;18.206;2023-08-12T14:54:44;20.00;99.90
8684;DHT22;4379;59.744;18.206;2023-08-12T14:57:12;19.90;99.90
8684;DHT22;4379;59.744;18.206;2023-08-12T14:59:40;19.80;99.90
8684;DHT22;4379;59.744;18.206;2023-08-12T15:02:07;19.80;99.90
8684;DHT22;4379;59.744;18.206;2023-08-12T15:04:35;20.00;99.90
8684;DHT22;4379;59.744;18.206;2023-08-12T15:07:02;19.90;99.90
8684;DHT22;4379;59.744;18.206;2023-08-12T15:09:30;19.80;99.90
8684;DHT22;4379;59.744;18.206;2023-08-12T15:11:58;19.90;99.90
8684;DHT22;4379;59.744;18.206;2023-08-12T15:14:25;19.90;99.90
8684;DHT22;4379;59.744;18.206;2023-08-12T15:16:52;19.90;99.90
8684;DHT22;4379;59.744;18.206;2023-08-12T15:19:20;19.80;99.90
8684;DHT22;4379;59.744;18.206;2023-08-12T15:21:47;19.80;99.90
8684;DHT22;4379;59.744;18.206;2023-08-12T15:24:15;20.00;99.90
8684;DHT22;4379;59.744;18.206;2023-08-12T15:26:43;20.00;99.90
8684;DHT22;4379;59.744;18.206;2023-08-12T15:29:14;19.90;99.90
8684;DHT22;4379;59.744;18.206;2023-08-12T15:31:43;19.80;99.90
8684;DHT22;4379;59.744;18.206;2023-08-12T15:34:13;19.70;99.90
8684;DHT22;4379;59.744;18.206;2023-08-12T15:36:41;19.70;99.90
8684;DHT22;4379;59.744;18.206;2023-08-12T15:39:10;19.70;99.90
8684;DHT22;4379;59.744;18.206;2023-08-12T15:41:42;19.50;99.90
8684;DHT22;4379;59.744;18.206;2023-08-12T15:44:11;19.60;99.90
8684;DHT22;4379;59.744;18.206;2023-08-12T15:46:39;19.40;99.90
8684;DHT22;4379;59.744;18.206;2023-08-12T15:49:07;19.60;99.90
8684;DHT22;4379;59.744;18.206;2023-08-12T15:51:39;19.40;99.90
8684;DHT22;4379;59.744;18.206;2023-08-12T15:54:08;19.30;99.90
8684;DHT22;4379;59.744;18.206;2023-08-12T15:56:38;19.30;99.90
8684;DHT22;4379;59.744;18.206;2023-08-12T15:59:06;19.10;99.90
8684;DHT22;4379;59.744;18.206;2023-08-12T16:01:34;19.00;99.90
8684;DHT22;4379;59.744;18.206;2023-08-12T16:04:03;19.10;99.90